Time;durP1;ratioP1;P1;durP2;ratioP2;P2;SDS_P1;SDS_P2;PMS_P1;PMS_P2;Temp;Humidity;BMP_temperature;BMP_pressure;BME280_temperature;BME280_humidity;BME280_pressure;Samples;Min_cycle;Max_cycle;Signal;HPM_P1;HPM_P2
2023/08/25 00:01:15;;;;;;;10.88;5.25;;;;;;;20.99;92.07;101020.72;5012372;28;96496;-26
2023/08/25 00:03:41;;;;;;;10.43;6.50;;;;;;;20.97;91.97;101022.78;5012911;28;96774;-27
2023/08/25 00:06:07;;;;;;;9.90;5.80;;;;;;;20.97;92.12;101020.91;5012254;28;98460;-27
2023/08/25 00:08:33;;;;;;;12.32;6.07;;;;;;;21.00;91.67;101026.09;5010750;28;100837;-27
2023/08/25 00:10:58;;;;;;;11.30;6.28;;;;;;;21.01;91.61;101018.69;5011656;28;96467;-26
2023/08/25 00:13:23;;;;;;;11.05;6.20;;;;;;;21.02;91.26;101022.28;5012317;28;96631;-27
2023/08/25 00:15:49;;;;;;;9.13;5.60;;;;;;;21.03;91.86;101024.03;5011793;28;98136;-27
2023/08/25 00:18:14;;;;;;;9.85;6.22;;;;;;;21.00;91.58;101015.06;5010529;28;100919;-27
2023/08/25 00:20:41;;;;;;;12.05;6.30;;;;;;;21.01;92.05;101026.94;5012438;28;96566;-27
2023/08/25 00:23:07;;;;;;;10.48;6.32;;;;;;;21.01;92.05;101021.44;5010622;28;96895;-26
2023/08/25 00:25:33;;;;;;;10.15;6.47;;;;;;;20.99;91.98;101017.97;5010392;28;101014;-26
2023/08/25 00:27:58;;;;;;;10.93;6.47;;;;;;;20.95;92.75;101002.78;5011141;28;97794;-26
2023/08/25 00:30:24;;;;;;;13.80;6.03;;;;;;;20.89;92.62;101001.53;5012066;28;96646;-26
2023/08/25 00:32:50;;;;;;;11.90;6.35;;;;;;;20.88;92.82;101009.94;5010489;28;96722;-27
2023/08/25 00:35:15;;;;;;;10.05;6.38;;;;;;;20.77;92.47;101000.91;5009823;28;107238;-29
2023/08/25 00:37:41;;;;;;;8.93;5.53;;;;;;;20.83;92.86;101017.81;5011326;28;97995;-28
2023/08/25 00:40:07;;;;;;;12.68;7.25;;;;;;;20.79;93.06;101023.66;5010486;28;96713;-28
2023/08/25 00:42:33;;;;;;;12.70;6.60;;;;;;;20.84;93.27;101022.31;5010333;28;96975;-26
2023/08/25 00:44:59;;;;;;;12.10;6.05;;;;;;;20.82;92.94;101024.34;5011728;28;97927;-27
2023/08/25 00:47:25;;;;;;;12.05;7.32;;;;;;;20.81;93.10;101022.59;5011284;28;99615;-28
2023/08/25 00:49:50;;;;;;;12.35;7.55;;;;;;;20.81;93.40;101029.00;5010443;28;96578;-26
2023/08/25 00:52:16;;;;;;;11.18;7.55;;;;;;;20.81;93.35;101030.88;5012044;28;97030;-26
2023/08/25 00:54:43;;;;;;;12.88;7.53;;;;;;;20.83;93.66;101031.59;5010057;28;101029;-26
2023/08/25 00:57:09;;;;;;;11.05;6.72;;;;;;;20.81;93.76;101022.59;5010187;28;101637;-27
2023/08/25 00:59:35;;;;;;;11.68;7.13;;;;;;;20.77;93.76;101028.44;5010890;28;96537;-26
2023/08/25 01:02:01;;;;;;;14.13;7.53;;;;;;;20.87;93.48;101035.75;5010168;28;96959;-27
2023/08/25 01:04:26;;;;;;;15.32;9.02;;;;;;;20.82;94.04;101027.97;5010108;28;100469;-26
2023/08/25 01:06:52;;;;;;;16.92;9.05;;;;;;;20.82;94.64;101033.47;5009907;28;98112;-27
2023/08/25 01:09:18;;;;;;;19.23;8.80;;;;;;;20.76;94.63;101023.97;5011841;28;96603;-26
2023/08/25 01:12:09;;;;;;;18.90;9.10;;;;;;;20.78;94.46;101034.81;5009957;28;96955;-26
2023/08/25 01:14:41;;;;;;;16.07;9.00;;;;;;;20.76;94.02;101032.22;5010032;28;101213;-26
2023/08/25 01:17:12;;;;;;;18.90;9.60;;;;;;;20.74;94.02;101028.75;5010316;28;101069;-26
2023/08/25 01:19:55;;;;;;;20.00;9.43;;;;;;;20.72;93.68;101021.69;5011514;28;96769;-26
2023/08/25 01:22:58;;;;;;;16.45;8.77;;;;;;;20.71;93.79;101026.31;5010154;28;96683;-26
2023/08/25 01:25:26;;;;;;;13.55;8.32;;;;;;;20.67;94.02;101024.03;5009207;28;101173;-26
2023/08/25 01:27:52;;;;;;;17.95;9.20;;;;;;;20.61;93.96;101011.75;5009354;28;100871;-27
2023/08/25 01:30:20;;;;;;;18.88;10.25;;;;;;;20.65;93.66;101018.69;5009931;28;96788;-26
2023/08/25 01:32:45;;;;;;;17.42;9.50;;;;;;;20.58;96.34;101020.31;5009883;28;96813;-27
2023/08/25 01:35:15;;;;;;;18.63;9.93;;;;;;;20.56;94.94;101016.84;5011237;28;98296;-28
2023/08/25 01:37:55;;;;;;;17.10;9.52;;;;;;;20.55;95.25;101015.09;5009444;28;100816;-27
2023/08/25 01:40:27;;;;;;;17.87;9.47;;;;;;;20.60;95.08;101022.94;5012371;28;96900;-26
2023/08/25 01:42:55;;;;;;;16.90;9.52;;;;;;;20.60;94.89;101015.53;5013554;28;96763;-26
2023/08/25 01:45:22;;;;;;;16.42;9.05;;;;;;;20.60;94.87;101018.28;5014258;28;99480;-26
2023/08/25 01:47:50;;;;;;;17.95;10.05;;;;;;;20.57;95.01;101010.34;5012745;28;101360;-26
2023/08/25 01:50:19;;;;;;;16.95;9.27;;;;;;;20.58;94.81;101003.81;5014338;28;97068;-27
2023/08/25 01:52:45;;;;;;;19.58;10.48;;;;;;;20.57;95.35;101002.94;5012768;28;96939;-26
2023/08/25 01:55:10;;;;;;;17.65;9.85;;;;;;;20.56;94.99;101000.34;5012778;28;98807;-27
2023/08/25 01:57:36;;;;;;;16.98;9.35;;;;;;;20.56;94.87;101000.34;5014331;28;97405;-26
2023/08/25 02:00:02;;;;;;;17.77;9.48;;;;;;;20.54;95.21;100997.69;5014313;28;96595;-27
2023/08/25 02:02:27;;;;;;;21.40;9.98;;;;;;;20.55;94.96;100993.09;5012752;28;96811;-28
2023/08/25 02:04:53;;;;;;;18.40;9.98;;;;;;;20.57;95.48;101002.94;5014210;28;98076;-26
2023/08/25 02:07:18;;;;;;;16.15;9.50;;;;;;;20.55;95.33;100998.59;5014323;28;97235;-26
2023/08/25 02:09:44;;;;;;;16.25;9.43;;;;;;;20.55;95.04;100996.72;5014147;28;96477;-26
2023/08/25 02:12:09;;;;;;;16.85;9.05;;;;;;;20.51;94.61;100986.16;5013864;28;96885;-26
2023/08/25 02:14:34;;;;;;;14.75;8.77;;;;;;;20.55;94.87;100993.09;5013500;28;97245;-26
2023/08/25 02:17:00;;;;;;;15.80;9.32;;;;;;;20.55;95.02;100984.84;5013758;28;97775;-27
2023/08/25 02:19:25;;;;;;;18.73;9.20;;;;;;;20.52;94.49;100976.88;5013890;28;96469;-26
2023/08/25 02:21:50;;;;;;;14.27;8.13;;;;;;;20.54;94.75;100985.84;5013920;28;96625;-26
2023/08/25 02:24:16;;;;;;;19.52;8.43;;;;;;;20.50;94.29;100974.28;5013769;28;97277;-26
2023/08/25 02:26:42;;;;;;;14.48;8.35;;;;;;;20.56;94.15;100981.06;5013670;28;97802;-27
2023/08/25 02:29:09;;;;;;;16.42;8.45;;;;;;;20.56;94.42;100976.44;5012531;28;96642;-31
2023/08/25 02:31:34;;;;;;;17.05;8.60;;;;;;;20.58;94.21;100977.16;5014193;28;96828;-26
2023/08/25 02:34:00;;;;;;;16.33;8.90;;;;;;;20.57;94.28;100969.91;5013622;28;97926;-26
2023/08/25 02:36:25;;;;;;;15.73;8.57;;;;;;;20.54;94.62;100964.69;5013713;28;97201;-26
2023/08/25 02:38:50;;;;;;;19.23;9.23;;;;;;;20.54;95.23;100963.81;5012852;28;96517;-26
2023/08/25 02:41:16;;;;;;;15.55;8.68;;;;;;;20.50;95.25;100957.78;5013608;28;96804;-26
2023/08/25 02:43:41;;;;;;;17.17;8.80;;;;;;;20.54;95.11;100961.94;5013433;28;97955;-26
2023/08/25 02:46:06;;;;;;;18.00;9.30;;;;;;;20.55;95.18;100951.81;5013124;28;99154;-27
2023/08/25 02:48:32;;;;;;;15.77;9.32;;;;;;;20.50;95.48;100934.91;5013441;28;96756;-28
2023/08/25 02:50:57;;;;;;;21.02;9.82;;;;;;;20.53;95.05;100940.94;5012572;28;96884;-26
2023/08/25 02:53:23;;;;;;;15.63;8.57;;;;;;;20.50;94.71;100933.00;5013678;28;97375;-26
2023/08/25 02:55:48;;;;;;;19.83;9.40;;;;;;;20.53;95.20;100931.81;5013446;28;98876;-26
2023/08/25 02:58:13;;;;;;;18.52;9.82;;;;;;;20.54;95.31;100931.66;5013589;28;96673;-28
2023/08/25 03:00:39;;;;;;;21.08;10.13;;;;;;;20.53;95.13;100924.44;5013602;28;96772;-26
2023/08/25 03:03:04;;;;;;;17.92;9.85;;;;;;;20.50;95.08;100922.00;5012731;28;97958;-26
2023/08/25 03:05:29;;;;;;;20.00;10.27;;;;;;;20.50;94.88;100930.25;5013242;28;97330;-27
2023/08/25 03:07:55;;;;;;;17.80;9.85;;;;;;;20.54;94.41;100939.06;5013226;28;96568;-26
2023/08/25 03:10:21;;;;;;;20.75;9.38;;;;;;;20.57;95.01;100925.03;5013029;28;96932;-27
2023/08/25 03:12:46;;;;;;;18.20;9.35;;;;;;;20.55;95.44;100918.78;5011506;28;101190;-26
2023/08/25 03:15:11;;;;;;;19.88;9.68;;;;;;;20.53;94.96;100916.19;5011878;28;97354;-26
2023/08/25 03:17:37;;;;;;;18.90;10.15;;;;;;;20.56;94.95;100912.28;5011806;28;96592;-26
2023/08/25 03:20:03;;;;;;;18.73;10.07;;;;;;;20.58;95.11;100912.97;5011954;28;96679;-27
2023/08/25 03:22:29;;;;;;;18.02;9.00;;;;;;;20.53;94.82;100901.56;5009734;28;101337;-26
2023/08/25 03:24:54;;;;;;;19.65;9.77;;;;;;;20.57;95.08;100908.50;5011456;28;97771;-26
2023/08/25 03:27:19;;;;;;;15.98;8.98;;;;;;;20.57;95.42;100914.88;5010862;28;96647;-26
2023/08/25 03:29:45;;;;;;;20.75;10.25;;;;;;;20.55;95.50;100913.28;5010130;28;96932;-26
2023/08/25 03:32:10;;;;;;;19.30;10.63;;;;;;;20.50;95.12;100902.75;5011136;28;99257;-27
2023/08/25 03:34:36;;;;;;;17.08;9.93;;;;;;;20.49;95.28;100901.00;5011282;28;97906;-26
2023/08/25 03:37:02;;;;;;;19.25;10.15;;;;;;;20.52;95.72;100899.81;5011424;28;96984;-26
2023/08/25 03:39:28;;;;;;;16.73;9.30;;;;;;;20.54;95.79;100908.78;5011001;28;96925;-26
2023/08/25 03:41:53;;;;;;;17.10;8.75;;;;;;;20.54;95.32;100903.28;5011224;28;98081;-26
2023/08/25 03:44:18;;;;;;;20.50;10.25;;;;;;;20.54;95.10;100903.28;5011694;28;97323;-27
2023/08/25 03:46:45;;;;;;;17.58;9.73;;;;;;;20.51;95.27;100889.84;5011158;28;96552;-26
2023/08/25 03:49:10;;;;;;;18.05;10.27;;;;;;;20.56;95.30;100902.13;5011167;28;96821;-27
2023/08/25 03:51:36;;;;;;;19.85;9.65;;;;;;;20.57;95.23;100894.75;5010215;28;97879;-27
2023/08/25 03:54:01;;;;;;;18.73;9.65;;;;;;;20.49;94.77;100883.63;5010761;28;99023;-26
2023/08/25 03:56:27;;;;;;;16.70;9.02;;;;;;;20.51;95.20;100890.69;5010834;28;96674;-28
2023/08/25 03:58:52;;;;;;;17.20;9.05;;;;;;;20.54;95.42;100903.28;5010775;28;96864;-27
2023/08/25 04:01:18;;;;;;;18.02;9.25;;;;;;;20.51;95.32;100884.34;5010724;28;97930;-26
2023/08/25 04:03:43;;;;;;;17.17;9.25;;;;;;;20.55;95.74;100892.16;5010773;28;98046;-26
2023/08/25 04:06:09;;;;;;;20.10;10.00;;;;;;;20.53;95.38;100890.53;5010979;28;96753;-26
2023/08/25 04:08:34;;;;;;;16.95;9.18;;;;;;;20.53;95.60;100890.53;5009624;28;96926;-26
2023/08/25 04:11:00;;;;;;;19.67;8.90;;;;;;;20.49;95.60;100886.38;5010739;28;97988;-26
2023/08/25 04:13:25;;;;;;;17.90;9.80;;;;;;;20.47;95.47;100885.66;5010906;28;97223;-28
2023/08/25 04:15:56;;;;;;;19.08;9.75;;;;;;;20.51;95.44;100882.44;4967978;28;1205032;-26
2023/08/25 04:18:21;;;;;;;21.77;9.60;;;;;;;20.47;95.48;100875.50;5012131;28;96851;-27
2023/08/25 04:20:47;;;;;;;16.45;9.00;;;;;;;20.50;95.46;100880.72;5012019;28;98393;-27
2023/08/25 04:23:12;;;;;;;16.58;9.57;;;;;;;20.48;95.52;100888.28;5010656;28;101437;-27
2023/08/25 04:25:38;;;;;;;16.25;8.77;;;;;;;20.49;95.38;100886.38;5012133;28;96662;-26
2023/08/25 04:28:03;;;;;;;18.17;9.68;;;;;;;20.51;95.65;100887.94;5012088;28;96828;-26
2023/08/25 04:30:29;;;;;;;17.05;9.60;;;;;;;20.50;95.71;100886.22;5011882;28;98042;-26
2023/08/25 04:32:54;;;;;;;20.77;10.13;;;;;;;20.49;95.62;100883.63;5011976;28;98728;-27
2023/08/25 04:35:19;;;;;;;16.23;9.25;;;;;;;20.48;95.61;100881.91;5011630;28;96652;-27
2023/08/25 04:37:47;;;;;;;16.95;9.15;;;;;;;20.47;96.13;100874.66;5011703;28;96898;-26
2023/08/25 04:40:16;;;;;;;18.75;9.18;;;;;;;20.44;95.94;100881.34;5009831;28;100958;-26
2023/08/25 04:42:42;;;;;;;19.75;9.35;;;;;;;20.50;95.81;100888.13;5010170;28;101016;-28
2023/08/25 04:45:10;;;;;;;16.73;9.05;;;;;;;20.49;95.93;100881.72;5011633;28;96551;-26
2023/08/25 04:47:35;;;;;;;18.90;8.73;;;;;;;20.44;95.39;100880.47;5011727;28;96804;-26
2023/08/25 04:50:03;;;;;;;19.83;9.55;;;;;;;20.48;95.82;100887.41;5011386;28;99334;-27
2023/08/25 04:52:29;;;;;;;17.42;9.50;;;;;;;20.49;95.42;100887.22;5010089;28;100779;-26
2023/08/25 04:54:54;;;;;;;16.60;9.32;;;;;;;20.48;95.42;100885.50;5011889;28;96763;-27
2023/08/25 04:57:19;;;;;;;17.63;8.57;;;;;;;20.54;95.53;100895.88;5012206;28;96805;-28
2023/08/25 04:59:45;;;;;;;19.50;9.35;;;;;;;20.51;95.73;100887.94;5011331;28;99285;-26
2023/08/25 05:02:10;;;;;;;16.02;8.60;;;;;;;20.51;95.59;100889.84;5011663;28;98053;-26
2023/08/25 05:04:36;;;;;;;20.05;9.52;;;;;;;20.53;95.49;100893.31;5011088;28;96695;-27
2023/08/25 05:07:01;;;;;;;21.75;9.25;;;;;;;20.54;95.85;100895.00;5011325;28;96841;-26
2023/08/25 05:09:26;;;;;;;18.98;8.88;;;;;;;20.55;95.97;100894.00;5011131;28;99580;-27
2023/08/25 05:11:51;;;;;;;22.05;9.75;;;;;;;20.50;95.78;100880.72;5011524;28;97784;-26
2023/08/25 05:14:17;;;;;;;15.95;9.43;;;;;;;20.55;95.33;100888.50;5012762;28;96847;-26
2023/08/25 05:16:42;;;;;;;18.88;9.68;;;;;;;20.45;97.26;100883.09;5014557;28;96758;-27
2023/08/25 05:19:09;;;;;;;22.25;10.23;;;;;;;20.43;99.23;100893.38;5014520;28;98481;-26
2023/08/25 05:21:35;;;;;;;19.15;10.10;;;;;;;20.41;98.11;100886.31;5015262;28;97848;-27
2023/08/25 05:24:26;;;;;;;20.92;10.88;;;;;;;20.46;96.98;100881.19;5015027;28;96793;-26
2023/08/25 05:26:52;;;;;;;;;;;;;;;20.46;97.90;100879.31;5011992;28;96956;-26
2023/08/25 05:29:28;;;;;;;15.60;8.25;;;;;;;20.47;97.07;100874.66;5014624;28;97413;-27
2023/08/25 05:31:54;;;;;;;21.15;9.75;;;;;;;20.50;96.72;100877.97;5014582;28;97845;-27
2023/08/25 05:34:20;;;;;;;21.02;10.40;;;;;;;20.51;96.83;100871.44;5014806;28;96617;-26
2023/08/25 05:36:45;;;;;;;19.95;10.50;;;;;;;20.51;96.87;100859.56;5014585;28;96866;-26
2023/08/25 05:39:14;;;;;;;20.63;10.52;;;;;;;20.56;96.49;100873.75;5012705;28;100826;-26
2023/08/25 05:41:39;;;;;;;21.02;10.77;;;;;;;20.56;96.49;100862.72;5014410;28;97277;-26
2023/08/25 05:44:05;;;;;;;20.15;9.85;;;;;;;20.57;96.41;100868.09;5014553;28;96785;-26
2023/08/25 05:46:30;;;;;;;18.38;9.20;;;;;;;20.63;95.90;100884.97;4996707;28;96812;-27
2023/08/25 05:48:59;;;;;;;18.35;9.70;;;;;;;20.61;95.81;100876.88;5014210;28;99450;-26
2023/08/25 05:51:25;;;;;;;21.75;10.23;;;;;;;20.64;95.78;100870.19;5012594;28;101273;-26
2023/08/25 05:53:51;;;;;;;20.48;10.23;;;;;;;20.68;95.94;100866.94;5012369;28;97139;-26
2023/08/25 05:56:17;;;;;;;19.52;9.98;;;;;;;20.70;96.16;100864.06;5012916;28;97240;-27
2023/08/25 05:58:42;;;;;;;20.40;9.88;;;;;;;20.72;96.05;100867.50;5013977;28;99325;-26
2023/08/25 06:01:08;;;;;;;18.42;9.35;;;;;;;20.71;96.32;100861.16;5014328;28;97857;-26
2023/08/25 06:03:34;;;;;;;22.73;10.63;;;;;;;20.76;95.86;100855.13;5012734;28;96557;-27
2023/08/25 06:06:00;;;;;;;18.08;9.07;;;;;;;20.77;95.62;100857.75;5014205;28;96836;-26
2023/08/25 06:08:25;;;;;;;18.00;9.07;;;;;;;20.82;95.98;100856.41;5014133;28;97984;-26
2023/08/25 06:10:52;;;;;;;16.90;8.75;;;;;;;20.76;96.01;100841.38;5012039;28;99329;-28
2023/08/25 06:13:18;;;;;;;17.98;9.38;;;;;;;20.81;95.86;100849.16;5011846;28;97233;-27
2023/08/25 06:15:43;;;;;;;19.90;9.98;;;;;;;20.81;96.14;100841.78;5011673;28;97184;-27
2023/08/25 06:18:09;;;;;;;17.83;9.77;;;;;;;20.84;95.83;100857.09;5011902;28;97439;-30
2023/08/25 06:20:35;;;;;;;19.05;9.02;;;;;;;20.77;95.82;100843.97;5012217;28;97243;-32
2023/08/25 06:23:00;;;;;;;16.80;8.95;;;;;;;20.88;95.82;100851.13;5012025;28;96767;-27
2023/08/25 06:25:26;;;;;;;16.52;8.30;;;;;;;20.98;95.39;100854.63;5012416;28;96771;-26
2023/08/25 06:27:51;;;;;;;17.98;9.55;;;;;;;21.05;95.76;100856.75;5013388;28;100319;-27
2023/08/25 06:30:17;;;;;;;17.63;8.70;;;;;;;21.12;94.99;100868.84;5013931;28;100312;-26
2023/08/25 06:32:43;;;;;;;18.27;9.52;;;;;;;21.14;94.50;100862.13;5014038;28;96541;-26
2023/08/25 06:35:11;;;;;;;18.08;9.00;;;;;;;21.21;94.74;100862.31;5014200;28;96765;-26
2023/08/25 06:37:37;;;;;;;19.83;8.85;;;;;;;21.25;94.53;100866.47;5011397;28;101383;-27
2023/08/25 06:40:07;;;;;;;16.17;8.32;;;;;;;21.21;94.60;100857.69;5011036;28;99474;-30
2023/08/25 06:42:33;;;;;;;17.75;8.00;;;;;;;21.19;94.75;100858.88;5009198;28;97025;-29
2023/08/25 06:44:59;;;;;;;15.50;8.00;;;;;;;21.13;95.00;100854.03;5009710;28;96983;-30
2023/08/25 06:47:27;;;;;;;8.75;4.50;;;;;;;21.08;94.91;100867.41;5011282;28;97939;-27
2023/08/25 06:49:52;;;;;;;8.50;4.13;;;;;;;21.04;95.03;100869.63;5009478;28;100924;-31
2023/08/25 06:52:18;;;;;;;11.52;3.97;;;;;;;20.96;95.19;100856.66;5011554;28;96820;-27
2023/08/25 06:54:44;;;;;;;7.88;3.60;;;;;;;20.97;95.10;100854.78;5013361;28;97030;-26
2023/08/25 06:57:09;;;;;;;8.02;3.95;;;;;;;20.99;94.91;100853.56;5013249;28;102991;-26
2023/08/25 06:59:34;;;;;;;11.10;4.10;;;;;;;20.96;94.61;100855.81;5013664;28;103370;-26
2023/08/25 07:02:00;;;;;;;8.18;3.17;;;;;;;20.98;94.81;100851.88;5013506;28;102342;-26
2023/08/25 07:04:25;;;;;;;8.68;3.45;;;;;;;20.93;94.61;100850.63;5012087;28;96831;-26
2023/08/25 07:06:51;;;;;;;7.15;3.53;;;;;;;20.91;95.19;100838.91;5012982;28;97386;-26
2023/08/25 07:09:17;;;;;;;10.55;3.97;;;;;;;20.96;95.07;100842.03;5013554;28;97260;-31
2023/08/25 07:11:43;;;;;;;6.75;4.10;;;;;;;21.12;95.09;100846.78;5012982;28;96750;-26
2023/08/25 07:14:09;;;;;;;7.40;4.35;;;;;;;21.25;94.53;100832.56;5011476;28;96905;-26
2023/08/25 07:16:34;;;;;;;10.25;3.75;;;;;;;21.37;94.14;100822.97;5012434;28;98867;-27
2023/08/25 07:19:00;;;;;;;9.52;3.78;;;;;;;21.37;93.36;100826.59;5013268;28;97239;-26
2023/08/25 07:21:25;;;;;;;10.95;4.13;;;;;;;21.39;93.30;100826.44;5013303;28;96394;-26
2023/08/25 07:23:50;;;;;;;9.30;4.47;;;;;;;21.45;93.50;100836.81;5013501;28;98011;-26
2023/08/25 07:26:16;;;;;;;9.55;4.30;;;;;;;21.43;93.36;100830.63;5012946;28;97322;-26
2023/08/25 07:28:41;;;;;;;7.88;5.05;;;;;;;21.40;93.69;100823.56;5012665;28;98938;-27
2023/08/25 07:31:07;;;;;;;8.13;4.95;;;;;;;21.42;93.29;100829.72;5012420;28;96581;-26
2023/08/25 07:33:33;;;;;;;12.57;6.38;;;;;;;21.42;92.75;100829.72;5012710;28;96828;-27
2023/08/25 07:35:59;;;;;;;11.55;5.90;;;;;;;21.38;92.81;100830.19;5011327;28;100951;-26
2023/08/25 07:38:24;;;;;;;11.45;6.05;;;;;;;21.41;92.66;100829.91;5011802;28;100440;-26
2023/08/25 07:40:50;;;;;;;12.20;6.35;;;;;;;21.44;92.58;100840.59;5012469;28;96665;-26
2023/08/25 07:43:15;;;;;;;11.75;6.28;;;;;;;21.40;92.88;100845.59;5011433;28;97019;-26
2023/08/25 07:45:41;;;;;;;12.52;6.80;;;;;;;21.43;92.74;100849.91;5012977;28;97371;-26
2023/08/25 07:48:07;;;;;;;15.30;6.80;;;;;;;21.47;92.71;100848.53;5013010;28;97789;-26
2023/08/25 07:50:32;;;;;;;12.23;6.68;;;;;;;21.53;92.87;100847.88;5011337;28;97220;-26
2023/08/25 07:52:58;;;;;;;14.75;8.10;;;;;;;21.68;92.50;100850.84;5012579;28;96752;-26
2023/08/25 07:55:25;;;;;;;15.57;7.07;;;;;;;21.78;91.50;100848.81;5010365;28;99894;-26
2023/08/25 07:57:51;;;;;;;13.40;6.82;;;;;;;21.79;91.65;100849.69;5010920;28;101231;-27
2023/08/25 08:00:17;;;;;;;14.35;7.65;;;;;;;21.79;91.94;100844.19;5011304;28;96498;-27
2023/08/25 08:02:44;;;;;;;13.73;7.20;;;;;;;21.84;91.37;100836.28;5011173;28;96876;-26
2023/08/25 08:05:10;;;;;;;13.68;6.82;;;;;;;21.89;90.74;100836.63;5010985;28;100849;-27
2023/08/25 08:07:36;;;;;;;12.38;6.75;;;;;;;21.90;91.09;100846.59;5010843;28;100728;-27
2023/08/25 08:10:03;;;;;;;14.07;7.30;;;;;;;21.87;90.86;100844.19;5010894;28;96612;-27
2023/08/25 08:12:29;;;;;;;10.90;6.40;;;;;;;21.83;91.02;100834.53;5012681;28;96742;-27
2023/08/25 08:14:54;;;;;;;16.08;7.32;;;;;;;21.82;90.59;100841.94;5011656;28;97465;-30
2023/08/25 08:17:20;;;;;;;12.77;6.72;;;;;;;21.81;90.50;100837.47;5012159;28;99281;-27
2023/08/25 08:19:45;;;;;;;13.95;6.65;;;;;;;21.76;90.75;100839.00;5011571;28;96362;-27
2023/08/25 08:22:11;;;;;;;15.10;6.88;;;;;;;21.74;90.93;100835.56;5012136;28;96874;-26
2023/08/25 08:24:36;;;;;;;12.48;7.00;;;;;;;21.69;90.68;100837.94;5011715;28;98938;-26
2023/08/25 08:27:02;;;;;;;10.95;6.20;;;;;;;21.65;91.08;100848.44;5010682;28;100652;-26
2023/08/25 08:29:28;;;;;;;13.85;6.65;;;;;;;21.63;91.48;100845.00;5012172;28;96522;-27
2023/08/25 08:31:55;;;;;;;14.52;7.47;;;;;;;21.60;91.34;100848.94;5010785;28;96830;-27
2023/08/25 08:34:21;;;;;;;14.15;6.85;;;;;;;21.62;91.08;100846.88;5010546;28;100915;-27
2023/08/25 08:36:47;;;;;;;10.75;6.15;;;;;;;21.59;91.45;100852.72;5010842;28;100945;-27
2023/08/25 08:39:13;;;;;;;13.52;6.95;;;;;;;21.62;91.13;100860.66;5011687;28;96607;-27
2023/08/25 08:41:38;;;;;;;10.25;6.35;;;;;;;21.61;91.21;100858.06;5012193;28;96772;-26
2023/08/25 08:44:08;;;;;;;12.45;6.20;;;;;;;21.65;91.03;100866.88;5010090;28;101449;-26
2023/08/25 08:46:36;;;;;;;12.20;6.50;;;;;;;21.72;90.92;100865.19;5011576;28;99275;-26
2023/08/25 08:49:02;;;;;;;18.65;7.32;;;;;;;21.88;89.88;100861.59;5012743;28;96497;-26
2023/08/25 08:51:30;;;;;;;14.35;7.40;;;;;;;22.27;88.85;100867.44;5014080;28;96832;-26
2023/08/25 08:53:58;;;;;;;11.48;6.68;;;;;;;22.48;88.05;100856.75;5013833;28;101128;-26
2023/08/25 08:56:23;;;;;;;15.65;6.57;;;;;;;22.66;87.19;100858.47;5013918;28;101102;-27
2023/08/25 08:58:48;;;;;;;10.68;6.43;;;;;;;22.72;86.73;100857.78;5015359;28;96699;-27
2023/08/25 09:01:15;;;;;;;15.00;7.30;;;;;;;22.62;86.76;100859.84;5015841;28;96798;-26
2023/08/25 09:03:41;;;;;;;13.55;7.00;;;;;;;22.56;86.17;100857.78;5015349;28;97366;-26
2023/08/25 09:06:07;;;;;;;12.23;6.30;;;;;;;22.48;86.88;100865.03;5015217;28;97143;-26
2023/08/25 09:08:35;;;;;;;14.02;6.80;;;;;;;22.45;87.38;100861.72;5014836;28;96646;-28
2023/08/25 09:11:03;;;;;;;15.30;6.90;;;;;;;22.62;87.44;100870.88;5013805;28;97005;-27
2023/08/25 09:13:35;;;;;;;10.13;6.05;;;;;;;22.71;86.74;100867.09;5013372;28;100857;-27
2023/08/25 09:16:12;;;;;;;15.68;7.32;;;;;;;22.95;85.09;100874.47;5013180;28;100867;-27
2023/08/25 09:18:38;;;;;;;12.50;6.15;;;;;;;23.17;84.90;100872.94;5013417;28;96739;-26
2023/08/25 09:21:15;;;;;;;14.80;7.03;;;;;;;23.26;83.89;100877.41;5013606;28;96949;-26
2023/08/25 09:23:54;;;;;;;14.30;7.03;;;;;;;23.18;83.87;100879.31;5015003;28;97922;-26
2023/08/25 09:26:20;;;;;;;15.95;6.97;;;;;;;23.17;83.73;100884.00;5015380;28;97781;-26
2023/08/25 09:28:45;;;;;;;14.25;6.13;;;;;;;23.08;83.95;100877.63;5013421;28;96706;-26
2023/08/25 09:31:25;;;;;;;11.13;7.00;;;;;;;23.07;84.11;100878.66;5014759;28;96795;-26
2023/08/25 09:33:52;;;;;;;11.25;6.53;;;;;;;23.02;84.19;100869.16;5012885;28;101464;-26
2023/08/25 09:36:20;;;;;;;11.40;6.10;;;;;;;22.94;83.87;100866.38;5014687;28;97903;-26
2023/08/25 09:38:46;;;;;;;13.00;6.88;;;;;;;22.99;84.46;100875.91;5013295;28;96636;-26
2023/08/25 09:41:11;;;;;;;10.45;5.93;;;;;;;22.97;84.22;100871.56;5013243;28;96925;-26
2023/08/25 09:43:39;;;;;;;12.52;5.55;;;;;;;22.96;84.02;100870.69;5014293;28;99237;-26
2023/08/25 09:46:08;;;;;;;12.95;6.47;;;;;;;22.96;84.22;100873.47;5014498;28;97846;-27
2023/08/25 09:48:35;;;;;;;11.02;5.82;;;;;;;22.96;84.65;100870.69;5013238;28;96741;-28
2023/08/25 09:51:00;;;;;;;11.38;6.28;;;;;;;22.97;84.69;100879.84;5013539;28;96875;-28
2023/08/25 09:53:33;;;;;;;9.88;6.00;;;;;;;22.92;83.20;100876.75;5013137;28;99011;-27
2023/08/25 09:56:06;;;;;;;11.82;5.72;;;;;;;22.90;83.89;100874.16;5014369;28;99789;-27
2023/08/25 09:58:31;;;;;;;9.98;5.78;;;;;;;23.09;83.70;100864.66;5012667;28;97309;-26
2023/08/25 10:00:58;;;;;;;11.73;6.63;;;;;;;23.43;82.60;100860.75;5014069;28;96782;-27
2023/08/25 10:03:24;;;;;;;12.27;5.88;;;;;;;23.58;81.16;100858.97;5012758;28;100931;-27
2023/08/25 10:05:49;;;;;;;11.60;6.32;;;;;;;23.70;81.42;100868.59;5013994;28;99360;-26
2023/08/25 10:08:16;;;;;;;14.07;5.90;;;;;;;23.54;81.70;100857.59;5014133;28;96560;-26
2023/08/25 10:10:44;;;;;;;12.18;6.32;;;;;;;23.43;81.53;100853.34;5012590;28;96869;-27
2023/08/25 10:13:14;;;;;;;9.65;5.55;;;;;;;23.34;81.99;100853.56;5012668;28;98905;-26
2023/08/25 10:15:42;;;;;;;9.88;5.88;;;;;;;23.20;82.45;100839.41;5012073;28;101927;-26
2023/08/25 10:18:08;;;;;;;13.15;5.85;;;;;;;23.12;83.18;100839.44;5012688;28;96585;-26
2023/08/25 10:20:37;;;;;;;12.73;6.78;;;;;;;23.03;83.39;100832.22;5012761;28;96902;-27
2023/08/25 10:23:04;;;;;;;15.25;6.65;;;;;;;22.90;83.30;100835.47;5012042;28;100926;-29
2023/08/25 10:25:31;;;;;;;16.48;6.10;;;;;;;22.85;83.93;100840.66;5012544;28;101157;-27
2023/08/25 10:28:01;;;;;;;13.35;5.75;;;;;;;22.83;83.42;100848.25;5012424;28;96686;-27
2023/08/25 10:30:27;;;;;;;11.45;6.53;;;;;;;22.78;83.53;100850.69;5012637;28;96742;-27
2023/08/25 10:33:04;;;;;;;12.88;6.03;;;;;;;22.80;83.55;100843.94;5012262;28;102068;-27
2023/08/25 10:35:45;;;;;;;12.07;6.43;;;;;;;22.83;83.66;100837.22;5013798;28;99612;-27
2023/08/25 10:38:20;;;;;;;9.33;5.73;;;;;;;23.20;82.54;100849.63;5013878;28;96590;-26
2023/08/25 10:40:53;;;;;;;15.90;5.90;;;;;;;23.61;80.06;100847.56;5014011;28;96934;-27
2023/08/25 10:43:31;;;;;;;13.85;6.15;;;;;;;24.03;79.44;100851.00;5012304;28;101000;-27
2023/08/25 10:45:56;;;;;;;9.63;5.40;;;;;;;24.48;77.36;100844.66;5012251;28;100732;-32
2023/08/25 10:48:25;;;;;;;12.60;6.22;;;;;;;24.80;76.10;100840.72;5013348;28;96519;-26
2023/08/25 10:50:52;;;;;;;11.63;6.03;;;;;;;25.07;74.90;100843.91;5013634;28;96850;-29
2023/08/25 10:53:37;;;;;;;10.50;5.93;;;;;;;25.18;74.68;100835.16;4995435;28;101239;-27
2023/08/25 10:56:14;;;;;;;12.23;6.25;;;;;;;25.34;74.41;100845.19;5012049;28;100940;-27
2023/08/25 10:58:39;;;;;;;13.80;6.18;;;;;;;25.15;75.06;100840.19;5011910;28;96802;-27
2023/08/25 11:01:04;;;;;;;12.73;5.90;;;;;;;24.90;76.08;100851.53;5013621;28;96756;-27
2023/08/25 11:04:12;;;;;;;9.52;5.30;;;;;;;24.67;75.96;100851.59;5013534;28;97815;-27
2023/08/25 11:06:41;;;;;;;11.50;5.65;;;;;;;24.63;76.80;100847.47;5013460;28;99935;-27
2023/08/25 11:09:09;;;;;;;15.00;6.45;;;;;;;24.71;75.55;100850.13;5011799;28;96809;-26
2023/08/25 11:11:36;;;;;;;14.50;6.63;;;;;;;24.47;76.63;100834.59;5010945;28;96807;-27
2023/08/25 11:14:02;;;;;;;9.45;5.75;;;;;;;24.35;76.98;100858.22;5011212;28;101751;-26
2023/08/25 11:16:28;;;;;;;9.48;5.57;;;;;;;24.17;77.46;100861.28;5012581;28;99186;-26